Impacts METAR Board
IDs:

KDEN - Denver Intl, CO, US

Updated at: 2000 UTC 22 Apr 2018
Potential Impact None Slight Moderate High
Time 22/08Z 22/09Z 22/10Z 22/11Z 22/12Z 22/13Z 22/14Z 22/15Z 22/16Z 22/17Z 22/18Z 22/19Z 22/20Z
Temp35 33 32 34 33 34 36 42 47 52 57 59 62
Dewpt31 30 29 31 29 31 33 35 38 38 37 37 36
Altim30.14 30.15 30.14 30.14 30.14 30.16 30.18 30.18 30.18 30.18 30.18 30.16 30.15
VIS10 10 10 10 10 7 6 10 10 10 10 10 10
CIG-- -- -- -- -- -- -- -- -- -- -- -- --
CoverCLRCLRCLRCLRFEWFEWFEWFEWFEWFEWFEWFEWFEW
FltCatVFRVFRVFRVFRVFRVFRVFRVFRVFRVFRVFRVFRVFR
WX----------BCFGBR------------
WDir23011014025025001100800330010
WSpd10 6 6 5 10 0 4 0 4 4 7 5 10
WGst-- -- -- -- -- -- -- -- -- -- -- 16 19
Raw hourly METARs
KDEN 220753Z 23010KT 10SM CLR 02/M01 A3014 RMK AO2 SLP204 T00171006
KDEN 220853Z 11006KT 10SM CLR 01/M01 A3015 RMK AO2 SLP211 T00061011 55004
KDEN 220953Z 14006KT 10SM CLR 00/M02 A3014 RMK AO2 SLP212 T00001017
KDEN 221053Z 25005KT 10SM CLR 01/M01 A3014 RMK AO2 SLP206 T00111006
KDEN 221153Z 25010KT 10SM FEW220 01/M02 A3014 RMK AO2 SLP206 FG BNK DSNT N 70015 T00061017 10022 21006 56004
KDEN 221253Z 00000KT 7SM BCFG FEW001 FEW085 01/M01 A3016 RMK AO2 SLP215 VIS W-NW 1 T00111006
KDEN 221353Z 11004KT 6SM BR FEW085 02/01 A3018 RMK AO2 SLP219 T00220006
KDEN 221453Z 00000KT 10SM FEW080 06/02 A3018 RMK AO2 SLP215 T00560017 51014
KDEN 221553Z 08004KT 10SM FEW080 08/03 A3018 RMK AO2 SLP210 T00830033
KDEN 221653Z VRB04KT 10SM FEW080 11/03 A3018 RMK AO2 SLP206 T01110033
KDEN 221753Z 33007KT 10SM FEW080 14/03 A3018 RMK AO2 SLP198 T01390028 10139 20000 58000
KDEN 221853Z VRB05G16KT 10SM FEW080 15/03 A3016 RMK AO2 SLP189 T01500028
KDEN 221953Z 01010G19KT 10SM FEW090 17/02 A3015 RMK AO2 SLP178 T01670022



Page loaded:  20:25 UTC  |   01:25 PM Pacific  |   02:25 PM Mountain  |   03:25 PM Central  |   04:25 PM Eastern

 

ADVISORIES

FORECASTS

FORECASTS

OBSERVATIONS

USER TOOLS

ABOUT US